Jackson, KY

8:18 PM EDT on July 28, 2016 (GMT -0400)
Carroll | | Change Station

Elev 1381 ft 37.59 °N, 83.31 °W | Updated 6 minutes ago

Overcast
Overcast
73 °F
Feels Like 73 °F
N
4
Wind Variable Wind from Variable

Today
High -- | Low -- °F
--% Chance of Precip.
Yesterday
High -- | Low -- °F
Precip. -- in
Pressure 29.96 in
Visibility 10.0 miles
Clouds Mostly Cloudy 500 ft
Mostly Cloudy 1200 ft
Overcast 7000 ft
Dew Point 70 °F
Humidity 90%
Rainfall 0.88 in
Snow Depth Not available.
6:34 AM 8:44 PM
Waning Crescent, 27% visible
SPECI KJKL 290012Z AUTO VRB03KT 10SM BKN005 BKN012 OVC070 23/21 A2996 RMK AO2 CIG 003V008 T02280211
Pressure 29.96 in
Visibility 10.0 miles
Clouds Mostly Cloudy 500 ft
Mostly Cloudy 1200 ft
Overcast 7000 ft
Dew Point 70 °F
Humidity 90%
Rainfall 0.88 in
Snow Depth Not available.
6:34 AM 8:44 PM
Waning Crescent, 27% visible
SPECI KJKL 290012Z AUTO VRB03KT 10SM BKN005 BKN012 OVC070 23/21 A2996 RMK AO2 CIG 003V008 T02280211

10-Day Weather Forecast

Almanac

Astronomy

Jul. 28, 2016 Rise Set
Actual Time
Civil Twilight
Nautical Twilight
Astronomical Twilight
Moon
Length of Visible Light
Length of Day
Tomorrow will be .
, % of the Moon is Illuminated

Today's Extremes

State Highs State Lows

Community

WunderPhotos

Upload Photos

1,928,239 photos uploaded!

WunderBlog® & News

Nearby

Air Quality

  Air Quality AQ Index Pollutant
Not available.

Snow Depth

Station Depth Elevation

Earthquake Activity

City Distance Mag. Time & Date
Minimum magnitude displayed is 2.5.

Coastal Water Temperatures

Place Temperature

Stations

Nearby Weather Stations

Station Location Temp. Windchill Dew Point Humidity Wind Precip. Elev Updated Type
                   

Watches & Warnings

There are currently no watches in effect.